createdAt,value
2019-05-25T17:41:44.391Z,45.30
2019-05-25T17:46:48.762Z,45.90
2019-05-25T17:51:53.103Z,46.70
2019-05-25T17:56:57.500Z,44.90
2019-05-25T18:02:01.865Z,44.30
2019-05-25T18:07:06.188Z,44.00
2019-05-25T18:12:10.584Z,43.50
2019-05-25T18:17:14.971Z,42.40
2019-05-25T18:22:19.355Z,42.70
2019-05-25T18:27:23.735Z,42.30
2019-05-25T18:32:28.059Z,42.50
2019-05-25T18:37:32.369Z,42.90
2019-05-25T18:42:36.788Z,43.40
2019-05-25T18:47:41.167Z,43.50
2019-05-25T18:52:45.647Z,43.90
2019-05-25T18:57:50.078Z,44.10
2019-05-25T19:02:54.467Z,44.70
2019-05-25T19:07:59.025Z,45.00
2019-05-25T19:13:03.662Z,45.50
2019-05-25T19:18:08.127Z,45.90
2019-05-25T19:23:12.933Z,46.40
2019-05-25T19:33:30.181Z,47.00
2019-05-25T19:38:37.531Z,47.30
2019-05-25T19:43:42.585Z,48.60
2019-05-25T19:48:46.967Z,49.50
2019-05-25T19:53:52.669Z,50.30
2019-05-25T19:58:57.829Z,50.70
2019-05-25T20:04:06.552Z,51.60
2019-05-25T20:09:10.960Z,51.90
2019-05-25T20:14:15.540Z,52.30
2019-05-25T20:19:19.847Z,52.50
2019-05-25T20:24:24.244Z,53.50
2019-05-25T20:29:28.590Z,53.90
2019-05-25T20:34:33.022Z,54.30
2019-05-25T20:39:41.281Z,54.70
2019-05-25T20:44:46.887Z,55.40
2019-05-25T20:49:51.575Z,55.90
2019-05-25T20:55:00.487Z,56.00
2019-05-25T21:00:05.684Z,56.00
2019-05-25T21:05:13.252Z,56.60
2019-05-25T21:10:17.951Z,57.00
2019-05-25T21:15:22.691Z,58.00
2019-05-25T21:20:27.330Z,58.50
2019-05-25T21:25:32.042Z,59.00
2019-05-25T21:30:37.070Z,59.30
2019-05-25T21:35:41.584Z,60.30
2019-05-25T21:40:46.099Z,61.00
2019-05-25T21:45:50.432Z,62.10
2019-05-25T21:50:54.879Z,63.20
2019-05-25T21:55:59.230Z,64.00
2019-05-25T22:01:03.848Z,64.70
2019-05-25T22:06:23.138Z,66.10
2019-05-25T22:11:14.214Z,65.80
2019-05-25T22:16:18.793Z,66.40
2019-05-25T22:21:23.334Z,67.20
2019-05-25T22:26:28.257Z,66.80
2019-05-25T22:31:32.586Z,66.60
2019-05-25T22:36:40.886Z,67.50
2019-05-25T22:41:42.974Z,69.30
2019-05-25T22:46:47.468Z,69.40
2019-05-25T22:51:51.827Z,71.10
2019-05-25T22:56:56.346Z,71.60
2019-05-25T23:02:00.815Z,72.00
2019-05-25T23:07:05.144Z,72.90
2019-05-25T23:12:09.611Z,74.10
2019-05-25T23:17:14.289Z,75.00
2019-05-25T23:22:18.826Z,75.50
2019-05-25T23:27:23.578Z,76.90
2019-05-25T23:32:28.111Z,78.70
2019-05-25T23:37:32.691Z,78.00
2019-05-25T23:42:40.863Z,78.10
2019-05-25T23:47:45.385Z,79.00
2019-05-25T23:52:56.249Z,78.10
2019-05-25T23:58:00.623Z,78.30
